Time;durP1;ratioP1;P1;durP2;ratioP2;P2;SDS_P1;SDS_P2;PMS_P1;PMS_P2;Temp;Humidity;BMP_temperature;BMP_pressure;BME280_temperature;BME280_humidity;BME280_pressure;Samples;Min_cycle;Max_cycle;Signal;HPM_P1;HPM_P2
2023/04/03 00:01:02;;;;;;;1.48;0.55;;;4.90;99.90;;;;;;4996764;28;20514;-75
2023/04/03 00:03:28;;;;;;;3.42;0.50;;;4.80;99.90;;;;;;4997371;28;20065;-74
2023/04/03 00:05:53;;;;;;;2.50;1.15;;;4.80;99.90;;;;;;5001021;28;20026;-75
2023/04/03 00:08:19;;;;;;;2.00;0.52;;;4.70;99.90;;;;;;5025798;28;20061;-74
2023/04/03 00:10:45;;;;;;;1.70;0.55;;;4.70;99.90;;;;;;4998652;28;20034;-75
2023/04/03 00:13:12;;;;;;;2.67;0.47;;;4.70;99.90;;;;;;4993193;28;20041;-76
2023/04/03 00:15:38;;;;;;;2.20;0.57;;;4.70;99.90;;;;;;5010512;28;20119;-73
2023/04/03 00:18:04;;;;;;;2.28;0.32;;;4.60;99.90;;;;;;4995553;28;20034;-73
2023/04/03 00:20:30;;;;;;;2.15;0.45;;;4.50;99.90;;;;;;4998074;28;20026;-76
2023/04/03 00:22:55;;;;;;;5.07;0.47;;;4.60;99.90;;;;;;4996507;28;20945;-76
2023/04/03 00:25:22;;;;;;;1.08;0.30;;;4.60;99.90;;;;;;4992280;28;20104;-76
2023/04/03 00:27:47;;;;;;;1.65;0.45;;;4.50;99.90;;;;;;5011479;28;20066;-74
2023/04/03 00:30:16;;;;;;;1.17;0.32;;;4.50;99.90;;;;;;4996867;28;20060;-74
2023/04/03 00:32:41;;;;;;;2.25;0.60;;;4.50;99.90;;;;;;5010330;28;20073;-74
2023/04/03 00:35:07;;;;;;;2.67;1.17;;;4.50;99.90;;;;;;5003546;28;20065;-75
2023/04/03 00:37:33;;;;;;;1.00;0.50;;;4.50;99.90;;;;;;5003228;28;20441;-73
2023/04/03 00:39:59;;;;;;;1.33;0.65;;;4.50;99.90;;;;;;5003515;28;20026;-74
2023/04/03 00:42:25;;;;;;;1.85;0.80;;;4.40;99.90;;;;;;5003503;28;20042;-74
2023/04/03 00:44:56;;;;;;;1.00;0.50;;;4.40;99.90;;;;;;5003062;28;20030;-74
2023/04/03 00:47:23;;;;;;;3.22;0.60;;;4.40;99.90;;;;;;5012372;28;20042;-74
2023/04/03 00:49:50;;;;;;;2.42;0.70;;;4.40;99.90;;;;;;5006930;28;20018;-74
2023/04/03 00:52:18;;;;;;;2.42;0.82;;;4.40;99.90;;;;;;5003301;28;20497;-72
2023/04/03 00:54:47;;;;;;;3.63;0.82;;;4.30;99.90;;;;;;5001579;28;20045;-74
2023/04/03 00:57:13;;;;;;;2.95;0.80;;;4.30;99.90;;;;;;5003093;28;20116;-76
2023/04/03 00:59:45;;;;;;;3.92;1.25;;;4.30;99.90;;;;;;5002796;28;20052;-74
2023/04/03 01:02:11;;;;;;;1.85;0.73;;;4.30;99.90;;;;;;5003309;28;20042;-74
2023/04/03 01:04:39;;;;;;;1.08;0.50;;;4.20;99.90;;;;;;5021673;28;20109;-74
2023/04/03 01:07:14;;;;;;;3.53;1.10;;;4.20;99.90;;;;;;5004969;28;20121;-74
2023/04/03 01:09:41;;;;;;;2.03;0.70;;;4.20;99.90;;;;;;5003459;28;20115;-75
2023/04/03 01:12:25;;;;;;;1.77;0.75;;;4.20;99.90;;;;;;5024144;28;20053;-74
2023/04/03 01:14:56;;;;;;;1.73;0.60;;;4.10;99.90;;;;;;5000344;28;20127;-72
2023/04/03 01:17:38;;;;;;;1.13;0.65;;;4.10;99.90;;;;;;4999159;28;20170;-73
2023/04/03 01:20:31;;;;;;;2.25;0.75;;;4.10;99.90;;;;;;5000033;28;20042;-72
2023/04/03 01:23:12;;;;;;;1.58;0.45;;;4.00;99.90;;;;;;5008213;28;20030;-72
2023/04/03 01:25:48;;;;;;;4.35;0.50;;;4.00;99.90;;;;;;5001257;28;20042;-74
2023/04/03 01:28:32;;;;;;;1.80;0.50;;;3.90;99.90;;;;;;5005605;28;20038;-72
2023/04/03 01:31:06;;;;;;;2.20;0.65;;;4.00;99.90;;;;;;4997322;28;20128;-74
2023/04/03 01:33:32;;;;;;;1.88;0.98;;;4.00;99.90;;;;;;5000739;28;20037;-72
2023/04/03 01:35:58;;;;;;;3.80;0.60;;;4.00;99.90;;;;;;5002504;28;20033;-73
2023/04/03 01:38:24;;;;;;;3.22;0.77;;;3.90;99.90;;;;;;5000434;28;20048;-75
2023/04/03 01:40:49;;;;;;;0.68;0.20;;;3.90;99.90;;;;;;5002164;28;20121;-75
2023/04/03 01:43:15;;;;;;;6.18;1.38;;;3.90;99.90;;;;;;5000742;28;22255;-74
2023/04/03 01:45:41;;;;;;;1.95;0.55;;;3.90;99.90;;;;;;5020890;28;20042;-75
2023/04/03 01:48:06;;;;;;;1.85;0.57;;;3.80;99.90;;;;;;4999937;28;20049;-74
2023/04/03 01:50:32;;;;;;;3.55;1.75;;;3.80;99.90;;;;;;5002705;28;20523;-73
2023/04/03 01:52:57;;;;;;;3.72;0.90;;;3.70;99.90;;;;;;5017838;28;20038;-74
2023/04/03 01:55:23;;;;;;;2.15;0.73;;;3.80;99.90;;;;;;5000885;28;20042;-74
2023/04/03 01:57:49;;;;;;;2.75;0.35;;;3.70;99.90;;;;;;4998357;28;20042;-74
2023/04/03 02:00:17;;;;;;;3.17;0.40;;;3.80;99.90;;;;;;4998660;28;20026;-75
2023/04/03 02:02:46;;;;;;;1.73;0.77;;;3.70;99.90;;;;;;5008120;28;20042;-74
2023/04/03 02:05:11;;;;;;;3.00;0.70;;;3.70;99.90;;;;;;4999487;28;20885;-73
2023/04/03 02:07:37;;;;;;;1.13;0.47;;;3.60;99.90;;;;;;4997910;28;20034;-74
2023/04/03 02:10:03;;;;;;;5.63;0.93;;;3.60;99.90;;;;;;5001969;28;20033;-74
2023/04/03 02:12:28;;;;;;;4.70;0.90;;;3.60;99.90;;;;;;4997898;28;20537;-76
2023/04/03 02:14:54;;;;;;;2.05;0.65;;;3.70;99.90;;;;;;4999379;28;20060;-76
2023/04/03 02:17:19;;;;;;;2.92;0.70;;;3.60;99.90;;;;;;5000128;28;20522;-74
2023/04/03 02:19:45;;;;;;;1.42;0.43;;;3.60;99.90;;;;;;4996928;28;20035;-75
2023/04/03 02:22:10;;;;;;;1.40;0.45;;;3.50;99.90;;;;;;4999154;28;20071;-73
2023/04/03 02:24:38;;;;;;;2.58;0.70;;;3.50;99.90;;;;;;4998070;28;20033;-74
2023/04/03 02:27:04;;;;;;;3.08;0.30;;;3.50;99.90;;;;;;4999210;28;20030;-75
2023/04/03 02:29:30;;;;;;;1.77;0.50;;;3.50;99.90;;;;;;5001364;28;21062;-74
2023/04/03 02:31:55;;;;;;;2.45;0.88;;;3.40;99.90;;;;;;4997228;28;20467;-73
2023/04/03 02:34:21;;;;;;;0.98;0.40;;;3.40;99.90;;;;;;4998848;28;20030;-73
2023/04/03 02:36:47;;;;;;;2.97;1.02;;;3.50;99.90;;;;;;4995748;28;20037;-76
2023/04/03 02:39:13;;;;;;;3.92;0.55;;;3.50;99.90;;;;;;4999179;28;20129;-74
2023/04/03 02:41:38;;;;;;;1.63;0.57;;;3.40;99.90;;;;;;4995729;28;20645;-75
2023/04/03 02:44:06;;;;;;;1.40;0.57;;;3.40;99.90;;;;;;5000779;28;20038;-74
2023/04/03 02:46:33;;;;;;;3.67;0.85;;;3.40;99.90;;;;;;4998356;28;20162;-72
2023/04/03 02:48:58;;;;;;;9.68;0.60;;;3.40;99.90;;;;;;5002519;28;20034;-74
2023/04/03 02:51:27;;;;;;;1.40;0.60;;;3.40;99.90;;;;;;5001825;28;20406;-73
2023/04/03 02:53:53;;;;;;;4.00;0.70;;;3.40;99.90;;;;;;4998689;28;20026;-74
2023/04/03 02:56:20;;;;;;;2.55;0.40;;;3.40;99.90;;;;;;4996714;28;20045;-74
2023/04/03 02:58:48;;;;;;;2.45;1.25;;;3.40;99.90;;;;;;5011426;28;20049;-76
2023/04/03 03:01:14;;;;;;;2.58;0.60;;;3.30;99.90;;;;;;4998034;28;20030;-74
2023/04/03 03:03:40;;;;;;;1.85;0.55;;;3.40;99.90;;;;;;5001800;28;20044;-75
2023/04/03 03:06:08;;;;;;;1.52;0.43;;;3.30;99.90;;;;;;5000597;28;20051;-74
2023/04/03 03:08:34;;;;;;;1.45;0.63;;;3.30;99.90;;;;;;5000422;28;20065;-73
2023/04/03 03:11:00;;;;;;;4.63;0.65;;;3.30;99.90;;;;;;4999854;28;20037;-74
2023/04/03 03:13:25;;;;;;;2.65;1.02;;;3.30;99.90;;;;;;4999623;28;20100;-74
2023/04/03 03:15:51;;;;;;;3.20;0.82;;;3.30;99.90;;;;;;5003410;28;20038;-72
2023/04/03 03:18:17;;;;;;;1.27;0.50;;;3.20;99.90;;;;;;4999140;28;20038;-74
2023/04/03 03:20:42;;;;;;;4.85;1.35;;;3.20;99.90;;;;;;4998671;28;20037;-74
2023/04/03 03:23:08;;;;;;;1.42;0.80;;;3.20;99.90;;;;;;4999719;28;20088;-72
2023/04/03 03:25:38;;;;;;;4.63;0.88;;;3.20;99.90;;;;;;5001235;28;20161;-72
2023/04/03 03:28:03;;;;;;;5.45;0.60;;;3.20;99.90;;;;;;4997251;28;20026;-73
2023/04/03 03:30:29;;;;;;;2.28;0.82;;;3.20;99.90;;;;;;4999760;28;20041;-74
2023/04/03 03:32:55;;;;;;;4.38;0.82;;;3.20;99.90;;;;;;5010902;28;20750;-75
2023/04/03 03:35:20;;;;;;;4.25;1.67;;;3.20;99.90;;;;;;4997989;28;20367;-74
2023/04/03 03:37:46;;;;;;;5.93;1.48;;;3.10;99.90;;;;;;5010626;28;20046;-75
2023/04/03 03:40:12;;;;;;;3.38;0.80;;;3.10;99.90;;;;;;4997706;28;20030;-74
2023/04/03 03:42:38;;;;;;;2.33;1.05;;;3.10;99.90;;;;;;4995275;28;20487;-74
2023/04/03 03:45:04;;;;;;;10.85;1.40;;;3.10;99.90;;;;;;5002247;28;20037;-74
2023/04/03 03:47:30;;;;;;;2.20;1.00;;;3.10;99.90;;;;;;4996416;28;20036;-74
2023/04/03 03:49:55;;;;;;;4.63;1.02;;;3.10;99.90;;;;;;5003063;28;20027;-74
2023/04/03 03:52:21;;;;;;;1.70;0.75;;;3.10;99.90;;;;;;4998475;28;20053;-74
2023/04/03 03:54:47;;;;;;;3.17;1.05;;;3.10;99.90;;;;;;4996078;28;20034;-74
2023/04/03 03:57:12;;;;;;;2.70;0.63;;;3.10;99.90;;;;;;4996677;28;20513;-74
2023/04/03 03:59:40;;;;;;;2.08;0.65;;;3.00;99.90;;;;;;4995393;28;20069;-75
2023/04/03 04:02:05;;;;;;;1.08;0.60;;;3.00;99.90;;;;;;4999703;28;20108;-77
2023/04/03 04:04:31;;;;;;;1.58;0.70;;;2.90;99.90;;;;;;4995114;28;20520;-73
2023/04/03 04:06:56;;;;;;;5.55;0.95;;;3.00;99.90;;;;;;4996482;28;20046;-75
2023/04/03 04:09:22;;;;;;;4.57;0.88;;;2.90;99.90;;;;;;5002734;28;20088;-73
2023/04/03 04:11:47;;;;;;;2.25;0.77;;;2.90;99.90;;;;;;4996562;28;20441;-77
2023/04/03 04:14:13;;;;;;;5.05;0.93;;;2.90;99.90;;;;;;4999425;28;20042;-72
2023/04/03 04:16:39;;;;;;;8.88;1.52;;;2.90;99.90;;;;;;4998871;28;20042;-73
2023/04/03 04:19:04;;;;;;;7.93;0.68;;;2.80;99.90;;;;;;4996908;28;20112;-74
2023/04/03 04:21:30;;;;;;;2.10;0.55;;;2.80;99.90;;;;;;5021020;28;20038;-71
2023/04/03 04:23:56;;;;;;;5.65;0.68;;;2.80;99.90;;;;;;4997112;28;20042;-75
2023/04/03 04:26:21;;;;;;;1.45;0.60;;;2.80;99.90;;;;;;5003208;28;20026;-74
2023/04/03 04:28:47;;;;;;;4.30;0.80;;;2.80;99.90;;;;;;4995073;28;20038;-73
2023/04/03 04:31:12;;;;;;;5.18;0.75;;;2.80;99.90;;;;;;4995025;28;20034;-73
2023/04/03 04:33:38;;;;;;;4.03;0.70;;;2.70;99.90;;;;;;4994011;28;20034;-74
2023/04/03 04:36:04;;;;;;;4.38;0.90;;;2.80;99.90;;;;;;5010312;28;20507;-74
2023/04/03 04:38:29;;;;;;;4.30;0.73;;;2.80;99.90;;;;;;4994809;28;20112;-72
2023/04/03 04:40:55;;;;;;;1.70;0.70;;;2.80;99.90;;;;;;4993144;28;20073;-76
2023/04/03 04:43:20;;;;;;;2.30;0.63;;;2.80;99.90;;;;;;4993656;28;20068;-74
2023/04/03 04:45:46;;;;;;;4.45;0.85;;;2.80;99.90;;;;;;4994305;28;20081;-73
2023/04/03 04:48:12;;;;;;;3.58;0.90;;;2.80;99.90;;;;;;4996861;28;20030;-73
2023/04/03 04:50:37;;;;;;;4.85;0.75;;;2.80;99.90;;;;;;4997200;28;20038;-73
2023/04/03 04:53:04;;;;;;;7.45;1.13;;;2.70;99.90;;;;;;4994483;28;20065;-74
2023/04/03 04:55:29;;;;;;;4.43;1.02;;;2.70;99.90;;;;;;5004788;28;20088;-74
2023/04/03 04:57:55;;;;;;;4.53;0.77;;;2.80;99.90;;;;;;5003940;28;20490;-74
2023/04/03 05:00:21;;;;;;;4.25;0.68;;;2.70;99.90;;;;;;5001608;28;20134;-73
2023/04/03 05:02:46;;;;;;;3.40;1.83;;;2.70;99.90;;;;;;4999293;28;20418;-73
2023/04/03 05:05:12;;;;;;;3.10;1.20;;;2.70;99.90;;;;;;5001465;28;20037;-74
2023/04/03 05:07:38;;;;;;;3.55;0.68;;;2.70;99.90;;;;;;5002571;28;20044;-73
2023/04/03 05:10:04;;;;;;;5.55;1.05;;;2.70;99.90;;;;;;5003419;28;20513;-73
2023/04/03 05:12:29;;;;;;;2.00;1.10;;;2.70;99.90;;;;;;5001847;28;20061;-76
2023/04/03 05:14:55;;;;;;;3.70;1.08;;;2.80;99.90;;;;;;5002605;28;20064;-74
2023/04/03 05:17:20;;;;;;;3.22;0.88;;;2.70;99.90;;;;;;4998618;28;20030;-72
2023/04/03 05:19:46;;;;;;;1.52;0.50;;;2.70;99.90;;;;;;5000869;28;20128;-73
2023/04/03 05:22:12;;;;;;;4.35;1.35;;;2.70;99.90;;;;;;5001633;28;20494;-73
2023/04/03 05:24:37;;;;;;;12.32;1.10;;;2.70;99.90;;;;;;4996948;28;20503;-74
2023/04/03 05:27:03;;;;;;;5.32;1.20;;;2.70;99.90;;;;;;5000308;28;20045;-74
2023/04/03 05:29:29;;;;;;;6.78;0.98;;;2.70;99.90;;;;;;4995411;28;20033;-72
2023/04/03 05:31:55;;;;;;;4.72;0.98;;;2.70;99.90;;;;;;4996290;28;20100;-71
2023/04/03 05:34:21;;;;;;;4.63;2.03;;;2.70;99.90;;;;;;4989117;28;20550;-72
2023/04/03 05:36:47;;;;;;;4.43;0.68;;;2.80;99.90;;;;;;5000035;28;20727;-72
2023/04/03 05:39:12;;;;;;;7.88;0.80;;;2.70;99.90;;;;;;5011715;28;20132;-74
2023/04/03 05:41:38;;;;;;;3.03;0.95;;;2.70;99.90;;;;;;5002361;28;20473;-75
2023/04/03 05:44:03;;;;;;;9.82;1.70;;;2.80;99.90;;;;;;4997009;28;20022;-74
2023/04/03 05:46:29;;;;;;;5.80;1.58;;;2.80;99.90;;;;;;4999052;28;20035;-72
2023/04/03 05:48:55;;;;;;;5.55;0.68;;;2.80;99.90;;;;;;4998945;28;20057;-72
2023/04/03 05:51:28;;;;;;;4.88;1.33;;;2.90;99.90;;;;;;5017615;28;20038;-72
2023/04/03 05:54:04;;;;;;;7.93;1.38;;;3.00;99.90;;;;;;5002087;28;20760;-72
2023/04/03 05:56:30;;;;;;;6.72;0.68;;;3.20;99.90;;;;;;4997789;28;20077;-73
2023/04/03 05:58:56;;;;;;;12.45;1.40;;;3.50;99.90;;;;;;5004055;28;20034;-72
2023/04/03 06:01:24;;;;;;;4.32;0.82;;;3.60;99.90;;;;;;5002330;28;20041;-73
2023/04/03 06:03:50;;;;;;;7.88;2.42;;;3.70;99.90;;;;;;5001654;28;20042;-73
2023/04/03 06:06:16;;;;;;;6.80;0.80;;;3.90;99.90;;;;;;5007758;28;20714;-72
2023/04/03 06:08:48;;;;;;;3.00;0.77;;;4.40;99.90;;;;;;5005042;28;20425;-72
2023/04/03 06:11:13;;;;;;;2.72;0.80;;;5.20;99.90;;;;;;4996437;28;20030;-73
2023/04/03 06:13:39;;;;;;;3.13;1.23;;;6.20;99.90;;;;;;4996795;28;20041;-72
2023/04/03 06:16:05;;;;;;;2.00;0.50;;;7.00;99.90;;;;;;5000076;28;20062;-74
2023/04/03 06:18:31;;;;;;;6.70;1.02;;;7.80;99.90;;;;;;4998758;28;20048;-73
2023/04/03 06:20:57;;;;;;;2.53;0.60;;;8.20;99.90;;;;;;5010447;28;20054;-74
2023/04/03 06:23:23;;;;;;;6.53;0.82;;;8.00;99.90;;;;;;5007115;28;20038;-72
2023/04/03 06:25:49;;;;;;;3.17;0.90;;;7.30;99.90;;;;;;5008861;28;20099;-73
2023/04/03 06:28:14;;;;;;;6.07;0.98;;;6.60;99.90;;;;;;5006569;28;20061;-72
2023/04/03 06:30:40;;;;;;;5.32;0.55;;;5.90;99.90;;;;;;5007707;28;20041;-72
2023/04/03 06:33:09;;;;;;;2.60;0.60;;;5.50;99.90;;;;;;5015851;28;20038;-73
2023/04/03 06:35:34;;;;;;;3.30;1.65;;;6.30;99.90;;;;;;5004607;28;20048;-76
2023/04/03 06:38:00;;;;;;;4.80;1.02;;;7.20;99.90;;;;;;5007512;28;20144;-73
2023/04/03 06:40:26;;;;;;;2.97;0.38;;;8.20;99.90;;;;;;5006702;28;20040;-73
2023/04/03 06:42:52;;;;;;;4.22;0.68;;;8.60;99.90;;;;;;5003929;28;20371;-74
2023/04/03 06:45:21;;;;;;;4.75;0.47;;;8.90;99.90;;;;;;5003376;28;20439;-72
2023/04/03 06:47:47;;;;;;;4.93;0.63;;;9.00;99.90;;;;;;5009130;28;20045;-72
2023/04/03 06:50:14;;;;;;;7.00;0.68;;;8.60;99.90;;;;;;5007765;28;20029;-73
2023/04/03 06:52:40;;;;;;;2.38;0.63;;;8.40;99.90;;;;;;5005955;28;20709;-72
2023/04/03 06:55:06;;;;;;;2.70;0.75;;;8.30;99.90;;;;;;5019925;28;20660;-72
2023/04/03 06:57:31;;;;;;;3.22;0.52;;;8.10;99.90;;;;;;5002450;28;20041;-73
2023/04/03 06:59:57;;;;;;;3.35;1.13;;;7.80;99.90;;;;;;5003980;28;20037;-73
2023/04/03 07:02:23;;;;;;;2.60;0.57;;;7.80;99.90;;;;;;4999059;28;20100;-73
2023/04/03 07:04:49;;;;;;;2.67;0.52;;;7.50;99.90;;;;;;5010458;28;20030;-72
2023/04/03 07:07:17;;;;;;;4.38;1.02;;;7.30;99.90;;;;;;5010746;28;20055;-72
2023/04/03 07:09:43;;;;;;;6.97;0.70;;;7.10;99.90;;;;;;5009460;28;20061;-72
2023/04/03 07:12:08;;;;;;;5.43;0.55;;;7.00;99.90;;;;;;5025959;28;20034;-73
2023/04/03 07:14:34;;;;;;;3.15;0.90;;;6.90;99.90;;;;;;5009176;28;20065;-72
2023/04/03 07:17:00;;;;;;;4.78;0.52;;;7.00;99.90;;;;;;5005063;28;20060;-73
2023/04/03 07:19:27;;;;;;;3.63;0.80;;;6.90;99.90;;;;;;5008473;28;20045;-72
2023/04/03 07:21:53;;;;;;;3.75;0.88;;;6.80;99.90;;;;;;5007380;28;20093;-73
2023/04/03 07:24:19;;;;;;;2.90;0.60;;;6.70;99.90;;;;;;5007692;28;20057;-71
2023/04/03 07:26:48;;;;;;;2.63;0.40;;;6.70;99.90;;;;;;4999800;28;20396;-71
2023/04/03 07:29:13;;;;;;;2.00;0.50;;;6.70;99.90;;;;;;5005389;28;20029;-72
2023/04/03 07:31:41;;;;;;;2.08;0.60;;;6.70;99.90;;;;;;5007286;28;20099;-73
2023/04/03 07:34:06;;;;;;;6.00;1.05;;;6.70;99.90;;;;;;4996616;28;20123;-72
2023/04/03 07:36:33;;;;;;;2.47;0.60;;;6.80;99.90;;;;;;5006053;28;20491;-72
2023/04/03 07:39:01;;;;;;;2.45;0.40;;;6.70;99.90;;;;;;4998533;28;20034;-73
2023/04/03 07:41:28;;;;;;;5.97;1.05;;;6.70;99.90;;;;;;5003772;28;20032;-72
2023/04/03 07:43:54;;;;;;;6.90;1.45;;;6.70;99.90;;;;;;5006248;28;20034;-73
2023/04/03 07:46:20;;;;;;;4.22;0.40;;;6.80;99.90;;;;;;4998918;28;20052;-72
2023/04/03 07:48:46;;;;;;;4.05;0.47;;;6.90;99.90;;;;;;5003452;28;20038;-72
2023/04/03 07:51:12;;;;;;;2.25;0.50;;;6.90;99.90;;;;;;4997046;28;20392;-72
2023/04/03 07:53:38;;;;;;;3.97;0.47;;;7.10;99.90;;;;;;4999373;28;20042;-72
2023/04/03 07:56:04;;;;;;;2.97;0.55;;;7.10;99.90;;;;;;4996190;28;20045;-72
2023/04/03 07:58:30;;;;;;;1.13;0.52;;;7.00;99.90;;;;;;5005913;28;20111;-72
2023/04/03 08:00:56;;;;;;;2.75;0.60;;;7.00;99.90;;;;;;5021321;28;20030;-72
2023/04/03 08:03:22;;;;;;;4.15;0.75;;;7.10;99.90;;;;;;4996591;28;20045;-72
2023/04/03 08:05:49;;;;;;;2.55;0.80;;;7.00;99.90;;;;;;4997197;28;20175;-72
2023/04/03 08:08:18;;;;;;;5.40;1.70;;;7.10;99.90;;;;;;4998370;28;20041;-72
2023/04/03 08:10:43;;;;;;;4.15;0.50;;;7.20;99.90;;;;;;5001737;28;20042;-72
2023/04/03 08:13:10;;;;;;;1.73;0.57;;;7.30;99.90;;;;;;5004805;28;20045;-74
2023/04/03 08:15:36;;;;;;;1.58;0.30;;;7.40;99.90;;;;;;4997915;28;20117;-72
2023/04/03 08:18:02;;;;;;;1.17;0.40;;;7.50;99.90;;;;;;5002803;28;20071;-74
2023/04/03 08:20:28;;;;;;;1.63;0.30;;;7.60;99.90;;;;;;5005954;28;20033;-72
2023/04/03 08:22:54;;;;;;;2.72;0.50;;;7.60;99.30;;;;;;5004833;28;20030;-74
2023/04/03 08:25:19;;;;;;;1.60;0.25;;;7.70;99.30;;;;;;4997473;28;20643;-73
2023/04/03 08:27:51;;;;;;;5.70;0.60;;;7.80;98.50;;;;;;5006380;28;20048;-73
2023/04/03 08:30:17;;;;;;;2.30;0.38;;;7.80;98.80;;;;;;5004623;28;20037;-73
2023/04/03 08:32:43;;;;;;;1.85;0.40;;;7.80;97.60;;;;;;4996844;28;20034;-72
2023/04/03 08:35:10;;;;;;;2.08;0.40;;;8.00;97.10;;;;;;5009436;28;20073;-71
2023/04/03 08:37:37;;;;;;;0.50;0.20;;;7.90;96.10;;;;;;5000617;28;20029;-72
2023/04/03 08:40:05;;;;;;;1.88;0.40;;;8.00;96.60;;;;;;5004669;28;20160;-76
2023/04/03 08:42:31;;;;;;;2.85;0.35;;;8.10;97.50;;;;;;4999343;28;20034;-72
2023/04/03 08:45:10;;;;;;;1.20;0.55;;;8.20;97.20;;;;;;5001582;28;20038;-72
2023/04/03 08:48:11;;;;;;;1.77;0.38;;;8.20;96.40;;;;;;4999776;28;20041;-72
2023/04/03 08:50:47;;;;;;;3.33;0.40;;;8.30;95.70;;;;;;4997852;28;20034;-72
2023/04/03 08:53:16;;;;;;;1.85;0.25;;;8.30;95.70;;;;;;4996982;28;20061;-73
2023/04/03 08:55:48;;;;;;;0.73;0.30;;;8.20;94.60;;;;;;5001555;28;20030;-71
2023/04/03 08:58:19;;;;;;;2.70;0.60;;;8.30;95.00;;;;;;5003830;28;20044;-72
2023/04/03 09:01:06;;;;;;;3.47;0.10;;;8.40;93.30;;;;;;4994834;28;20041;-73
2023/04/03 09:03:36;;;;;;;2.55;0.30;;;8.40;91.70;;;;;;5012608;28;20037;-72
2023/04/03 09:06:04;;;;;;;1.95;0.20;;;8.30;91.00;;;;;;5000378;28;20044;-72
2023/04/03 09:08:34;;;;;;;3.72;0.28;;;8.20;91.20;;;;;;4992135;28;20026;-71
2023/04/03 09:11:18;;;;;;;1.60;0.13;;;8.30;91.80;;;;;;5004314;28;20040;-73
2023/04/03 09:13:54;;;;;;;1.55;0.20;;;8.50;90.60;;;;;;4997333;28;20301;-73
2023/04/03 09:16:46;;;;;;;3.63;0.20;;;8.40;90.00;;;;;;5015853;28;20037;-73
2023/04/03 09:19:32;;;;;;;1.35;0.15;;;8.40;89.40;;;;;;5003022;28;20531;-72
2023/04/03 09:22:19;;;;;;;0.40;0.10;;;8.40;87.00;;;;;;4996526;28;20073;-72
2023/04/03 09:25:08;;;;;;;1.40;0.20;;;8.50;87.40;;;;;;5003933;28;20084;-74
2023/04/03 09:27:34;;;;;;;2.35;0.98;;;8.60;84.50;;;;;;4998080;28;20041;-74
2023/04/03 09:29:59;;;;;;;2.05;0.20;;;8.70;85.50;;;;;;5003269;28;20383;-72
2023/04/03 09:32:27;;;;;;;4.65;0.35;;;8.70;83.40;;;;;;5004652;28;20386;-74
2023/04/03 09:34:56;;;;;;;3.22;0.08;;;8.80;84.30;;;;;;5004077;28;20041;-72
2023/04/03 09:37:41;;;;;;;1.33;0.13;;;8.80;82.50;;;;;;4993815;28;20542;-72
2023/04/03 09:40:31;;;;;;;0.65;0.10;;;8.90;80.10;;;;;;5002434;28;20054;-74
2023/04/03 09:43:18;;;;;;;0.30;0.10;;;8.90;78.30;;;;;;5004900;28;20486;-72
2023/04/03 09:45:45;;;;;;;0.50;0.15;;;8.80;78.90;;;;;;5004008;28;20225;-75
2023/04/03 09:48:14;;;;;;;1.10;0.20;;;8.70;78.80;;;;;;5003804;28;20042;-73
2023/04/03 09:51:01;;;;;;;0.10;0.05;;;8.80;79.70;;;;;;5009114;28;20042;-73
2023/04/03 09:53:35;;;;;;;2.65;0.88;;;8.80;79.50;;;;;;4999349;28;20129;-72
2023/04/03 09:56:04;;;;;;;2.15;0.20;;;8.80;78.90;;;;;;4997491;28;20578;-73
2023/04/03 09:58:35;;;;;;;0.95;0.22;;;8.90;79.20;;;;;;5009336;28;20038;-73
2023/04/03 10:01:02;;;;;;;1.75;0.20;;;8.80;80.00;;;;;;4996780;28;20030;-72
2023/04/03 10:03:39;;;;;;;1.00;0.10;;;8.90;79.60;;;;;;5018279;28;20042;-73
2023/04/03 10:06:23;;;;;;;2.20;0.20;;;8.90;79.80;;;;;;4996397;28;20026;-72
2023/04/03 10:09:00;;;;;;;0.35;0.03;;;8.90;80.00;;;;;;4999827;28;20030;-72
2023/04/03 10:11:26;;;;;;;0.80;0.25;;;9.00;79.00;;;;;;5001020;28;20181;-72
2023/04/03 10:13:54;;;;;;;0.68;0.32;;;9.10;78.70;;;;;;5007012;28;20038;-72
2023/04/03 10:16:27;;;;;;;0.50;0.00;;;9.20;80.10;;;;;;4995313;28;20117;-72
2023/04/03 10:19:03;;;;;;;0.95;0.17;;;9.30;78.90;;;;;;5008085;28;20045;-72
2023/04/03 10:21:42;;;;;;;1.17;0.10;;;9.40;77.30;;;;;;5000835;28;20034;-72
2023/04/03 10:24:14;;;;;;;1.73;0.40;;;9.40;76.30;;;;;;4996532;28;20038;-72
2023/04/03 10:26:49;;;;;;;1.75;0.20;;;9.40;77.40;;;;;;5008733;28;20030;-72
2023/04/03 10:29:38;;;;;;;0.93;0.20;;;9.40;75.80;;;;;;4997547;28;20037;-72
2023/04/03 10:32:35;;;;;;;0.45;0.20;;;9.40;75.80;;;;;;5004700;28;20073;-72
2023/04/03 10:35:18;;;;;;;0.75;0.10;;;9.40;76.90;;;;;;5003440;28;20837;-72
2023/04/03 10:38:04;;;;;;;0.90;0.13;;;9.50;74.90;;;;;;5000280;28;20042;-72
2023/04/03 10:40:56;;;;;;;1.55;0.10;;;9.50;74.50;;;;;;5000482;28;20041;-72
2023/04/03 10:43:27;;;;;;;3.00;0.25;;;9.60;74.90;;;;;;5005278;28;20038;-72
2023/04/03 10:45:56;;;;;;;0.30;0.00;;;9.60;73.80;;;;;;5002364;28;20034;-73
2023/04/03 10:48:44;;;;;;;0.35;0.00;;;9.70;74.70;;;;;;5007363;28;20038;-72
2023/04/03 10:51:36;;;;;;;2.17;0.70;;;9.80;70.30;;;;;;5006976;28;20084;-73
2023/04/03 10:54:07;;;;;;;0.10;0.10;;;9.70;69.10;;;;;;5004626;28;20022;-72
2023/04/03 10:56:36;;;;;;;11.98;1.23;;;9.60;69.00;;;;;;4996160;28;20056;-72
2023/04/03 10:59:22;;;;;;;1.50;0.13;;;9.60;66.80;;;;;;5004466;28;20050;-71
2023/04/03 11:02:00;;;;;;;0.35;0.00;;;9.60;66.10;;;;;;4992489;28;20041;-74
2023/04/03 11:04:31;;;;;;;1.55;0.10;;;9.50;64.80;;;;;;5006366;28;20030;-72
2023/04/03 11:07:01;;;;;;;2.38;0.20;;;9.40;63.40;;;;;;5003915;28;20042;-73
2023/04/03 11:09:37;;;;;;;2.10;0.10;;;9.30;64.50;;;;;;5003563;28;20119;-75
2023/04/03 11:12:25;;;;;;;1.08;0.13;;;9.30;63.30;;;;;;5002922;28;20046;-73
2023/04/03 11:14:54;;;;;;;0.05;0.00;;;9.20;64.10;;;;;;5002332;28;20557;-75
2023/04/03 11:17:22;;;;;;;0.38;0.13;;;9.20;64.10;;;;;;5016852;28;20037;-73
2023/04/03 11:20:19;;;;;;;0.22;0.00;;;9.20;65.90;;;;;;5002419;28;20069;-73
2023/04/03 11:22:58;;;;;;;1.08;0.20;;;9.30;63.20;;;;;;5018010;28;20088;-72
2023/04/03 11:25:25;;;;;;;2.17;0.00;;;9.20;65.10;;;;;;5001644;28;20048;-71
2023/04/03 11:28:01;;;;;;;0.82;0.25;;;9.30;62.30;;;;;;5004220;28;20041;-74
2023/04/03 11:30:52;;;;;;;1.85;0.13;;;9.20;63.40;;;;;;5002029;28;20041;-72
2023/04/03 11:33:33;;;;;;;0.60;0.10;;;9.20;64.00;;;;;;5016638;28;20862;-74
2023/04/03 11:36:09;;;;;;;0.38;0.10;;;9.20;63.80;;;;;;5002821;28;20034;-72
2023/04/03 11:38:40;;;;;;;0.00;0.00;;;9.20;65.80;;;;;;5002945;28;20755;-74
2023/04/03 11:41:08;;;;;;;0.63;0.08;;;9.30;64.10;;;;;;5001419;28;20034;-73
2023/04/03 11:43:39;;;;;;;0.40;0.00;;;9.30;65.00;;;;;;5003648;28;20041;-73
2023/04/03 11:46:06;;;;;;;3.00;0.45;;;9.30;66.00;;;;;;5002893;28;20026;-72
2023/04/03 11:48:35;;;;;;;0.30;0.22;;;9.20;66.50;;;;;;5002409;28;20084;-72
2023/04/03 11:51:22;;;;;;;0.90;0.20;;;9.20;66.40;;;;;;5005628;28;20049;-72
2023/04/03 11:53:48;;;;;;;4.15;0.63;;;9.20;67.20;;;;;;5002226;28;20046;-72
2023/04/03 11:56:20;;;;;;;0.77;0.10;;;9.30;67.80;;;;;;5001018;28;20073;-71
2023/04/03 11:59:11;;;;;;;0.50;0.10;;;9.30;69.40;;;;;;5003914;28;20493;-72
2023/04/03 12:01:46;;;;;;;0.57;0.10;;;9.40;68.70;;;;;;5001337;28;20083;-74
2023/04/03 12:04:16;;;;;;;1.05;0.10;;;9.40;68.30;;;;;;5000312;28;20045;-74
2023/04/03 12:06:51;;;;;;;0.95;0.13;;;9.40;68.70;;;;;;4999569;28;20176;-73
2023/04/03 12:09:39;;;;;;;1.92;0.10;;;9.40;69.80;;;;;;5002789;28;20045;-72
2023/04/03 12:12:22;;;;;;;1.13;0.38;;;9.50;69.10;;;;;;5002886;28;20042;-72
2023/04/03 12:14:48;;;;;;;1.05;0.30;;;9.50;69.80;;;;;;5016388;28;20038;-72
2023/04/03 12:17:23;;;;;;;0.80;0.10;;;9.40;69.20;;;;;;5001850;28;20045;-72
2023/04/03 12:19:49;;;;;;;3.72;0.22;;;9.40;69.40;;;;;;5003176;28;20041;-73
2023/04/03 12:22:23;;;;;;;5.38;0.22;;;9.40;70.80;;;;;;5001993;28;20187;-74
2023/04/03 12:24:53;;;;;;;2.72;0.20;;;9.40;70.70;;;;;;5001121;28;20678;-71
2023/04/03 12:27:28;;;;;;;3.28;0.20;;;9.50;70.90;;;;;;5002782;28;20124;-74
2023/04/03 12:30:06;;;;;;;1.52;0.45;;;9.60;72.50;;;;;;5006133;28;20044;-72
2023/04/03 12:32:43;;;;;;;0.52;0.10;;;9.70;72.60;;;;;;5002579;28;20030;-72
2023/04/03 12:35:29;;;;;;;1.50;0.38;;;9.70;69.90;;;;;;5002526;28;20050;-72
2023/04/03 12:38:13;;;;;;;1.27;0.10;;;9.70;69.80;;;;;;4998808;28;20038;-72
2023/04/03 12:40:42;;;;;;;3.42;0.70;;;9.60;71.80;;;;;;5002052;28;20113;-73
2023/04/03 12:43:35;;;;;;;2.83;0.20;;;9.60;68.90;;;;;;5014725;28;20390;-75
2023/04/03 12:46:15;;;;;;;1.17;0.20;;;9.50;70.20;;;;;;4998806;28;20514;-73
2023/04/03 12:48:59;;;;;;;2.10;0.20;;;9.60;70.40;;;;;;4995441;28;20842;-71
2023/04/03 12:51:42;;;;;;;0.65;0.20;;;9.70;70.00;;;;;;4999076;28;20040;-74
2023/04/03 12:54:19;;;;;;;0.70;0.38;;;9.70;69.50;;;;;;5001495;28;20624;-73
2023/04/03 12:56:45;;;;;;;2.00;0.25;;;9.70;71.50;;;;;;5001379;28;20034;-71
2023/04/03 12:59:26;;;;;;;2.67;0.25;;;9.70;72.30;;;;;;5001385;28;20049;-76
2023/04/03 13:01:59;;;;;;;1.05;0.30;;;9.80;70.50;;;;;;5002144;28;20041;-72
2023/04/03 13:04:28;;;;;;;2.42;0.20;;;9.70;70.70;;;;;;4999163;28;20144;-72
2023/04/03 13:06:54;;;;;;;1.45;0.10;;;9.80;71.70;;;;;;5001510;28;20120;-74
2023/04/03 13:09:27;;;;;;;4.60;0.63;;;9.80;70.70;;;;;;4999937;28;20124;-75
2023/04/03 13:12:11;;;;;;;1.65;0.47;;;9.80;70.40;;;;;;5001943;28;20042;-72